Eccles, West Virginia
Current Conditions -  °F | °C
As of 7:51 AM on Friday 24 Oct 2014 (Local Time) from KBKW Reporting Station
Haze Haze  
Wind Chill: 37°   Ceiling: Unl
Heat Index: 37°   Visibility: 3mi
Dew Point: 35°   Wind: 0mph
Humidity: 93%   Direction: NA
Pressure: 30.1"   Gusts: NA
Location:  37.79°N, 81.27°W
Report Text: KBKW 241151Z AUTO 00000KT 3SM BR CLR 03/02 A3010 RMK AO2 VIS 1 1/2 RWY19 SLP204 I6000 T00280017 10039 20017 50000 TSNO
Loading
Personal Weather Stations






























Interactive Weather Map
Tropical Storm Tracking
New forecast layout! Learn more

10-Day Weather Forecast

Advertisements
Track Severe Weather on mobile